createdAt,value
2023-05-02T00:00:53.729Z,8.60
2023-05-02T00:03:26.864Z,8.70
2023-05-02T00:05:59.440Z,8.30
2023-05-02T00:08:31.746Z,8.00
2023-05-02T00:11:04.059Z,8.80
2023-05-02T00:13:39.305Z,9.20
2023-05-02T00:16:12.132Z,8.80
2023-05-02T00:18:44.316Z,8.90
2023-05-02T00:21:16.406Z,8.60
2023-05-02T00:23:52.182Z,8.20
2023-05-02T00:26:24.432Z,8.80
2023-05-02T00:29:01.377Z,9.40
2023-05-02T00:31:33.657Z,9.70
2023-05-02T00:34:06.190Z,9.50
2023-05-02T00:36:38.268Z,9.50
2023-05-02T00:39:10.973Z,10.40
2023-05-02T00:41:43.165Z,10.90
2023-05-02T00:44:15.366Z,10.80
2023-05-02T00:46:47.638Z,10.10
2023-05-02T00:49:20.048Z,10.30
2023-05-02T00:51:52.258Z,10.90
2023-05-02T00:54:24.438Z,11.60
2023-05-02T00:56:56.779Z,10.50
2023-05-02T00:59:29.643Z,10.90
2023-05-02T01:02:13.010Z,9.60
2023-05-02T01:04:52.004Z,9.90
2023-05-02T01:07:37.795Z,10.10
2023-05-02T01:10:20.948Z,9.70
2023-05-02T01:13:00.505Z,9.80
2023-05-02T01:15:34.176Z,10.10
2023-05-02T01:18:10.360Z,9.60
2023-05-02T01:20:46.131Z,9.70
2023-05-02T01:23:23.725Z,9.20
2023-05-02T01:26:09.209Z,9.50
2023-05-02T01:28:53.424Z,9.60
2023-05-02T01:31:30.266Z,9.80
2023-05-02T01:34:03.824Z,10.50
2023-05-02T01:36:38.168Z,9.90
2023-05-02T01:39:12.063Z,10.70
2023-05-02T01:41:44.881Z,10.20
2023-05-02T01:44:19.389Z,10.70
2023-05-02T01:46:54.609Z,9.10
2023-05-02T01:49:28.480Z,10.70
2023-05-02T01:52:06.718Z,9.60
2023-05-02T01:54:41.132Z,9.80
2023-05-02T01:57:14.325Z,10.30
2023-05-02T01:59:48.126Z,9.80
2023-05-02T02:02:20.963Z,9.00
2023-05-02T02:04:54.550Z,10.20
2023-05-02T02:07:26.984Z,9.60
2023-05-02T02:10:00.020Z,10.30
2023-05-02T02:12:38.150Z,10.50
2023-05-02T02:15:18.332Z,10.00
2023-05-02T02:17:56.538Z,10.00
2023-05-02T02:20:32.009Z,9.40
2023-05-02T02:23:08.522Z,10.30
2023-05-02T02:25:41.679Z,9.30
2023-05-02T02:28:16.833Z,10.90
2023-05-02T02:30:49.297Z,10.10
2023-05-02T02:33:21.909Z,10.10
2023-05-02T02:36:06.390Z,12.00
2023-05-02T02:38:45.269Z,10.30
2023-05-02T02:41:24.695Z,11.30
2023-05-02T02:44:13.484Z,10.70
2023-05-02T02:46:52.448Z,10.70
2023-05-02T02:49:33.698Z,10.80
2023-05-02T02:52:12.321Z,10.50
2023-05-02T02:54:51.602Z,10.20
2023-05-02T02:57:33.933Z,10.70
2023-05-02T03:00:21.765Z,10.90
2023-05-02T03:02:56.034Z,10.00
2023-05-02T03:05:28.719Z,10.60
2023-05-02T03:08:02.047Z,10.40
2023-05-02T03:10:35.611Z,10.50
2023-05-02T03:13:08.288Z,10.10
2023-05-02T03:16:08.370Z,9.50
2023-05-02T03:18:41.544Z,10.10
2023-05-02T03:21:13.924Z,9.50
2023-05-02T03:23:46.382Z,8.80
2023-05-02T03:26:19.223Z,10.50
2023-05-02T03:28:52.232Z,8.80
2023-05-02T03:31:26.793Z,8.70
2023-05-02T03:33:59.863Z,9.50
2023-05-02T03:36:32.346Z,8.70
2023-05-02T03:39:04.568Z,8.00
2023-05-02T03:41:36.812Z,8.40
2023-05-02T03:44:10.729Z,8.70
2023-05-02T03:46:43.314Z,8.60
2023-05-02T03:49:16.012Z,8.60
2023-05-02T03:51:48.854Z,8.00
2023-05-02T03:54:26.274Z,8.00
2023-05-02T03:56:59.597Z,8.70
2023-05-02T03:59:36.493Z,7.30
2023-05-02T04:02:13.215Z,8.50
2023-05-02T04:04:49.169Z,7.40
2023-05-02T04:07:25.928Z,7.60
2023-05-02T04:10:16.380Z,7.00
2023-05-02T04:12:51.503Z,7.20
2023-05-02T04:15:24.423Z,6.40
2023-05-02T04:18:00.581Z,8.10
2023-05-02T04:20:36.280Z,7.40
2023-05-02T04:23:11.133Z,7.40
2023-05-02T04:25:54.161Z,6.30
2023-05-02T04:28:29.394Z,7.10
2023-05-02T04:31:03.322Z,7.10
2023-05-02T04:33:38.158Z,7.00
2023-05-02T04:36:13.600Z,6.00
2023-05-02T04:38:50.564Z,6.50
2023-05-02T04:41:23.289Z,7.30
2023-05-02T04:44:01.488Z,6.80
2023-05-02T04:46:33.940Z,6.20
2023-05-02T04:49:06.275Z,6.20
2023-05-02T04:51:38.742Z,5.70
2023-05-02T04:54:10.915Z,6.50
2023-05-02T04:56:43.317Z,6.80
2023-05-02T04:59:16.000Z,7.10
2023-05-02T05:01:48.459Z,6.70
2023-05-02T05:04:22.081Z,6.20
2023-05-02T05:06:56.659Z,6.50
2023-05-02T05:09:30.445Z,6.30
2023-05-02T05:12:03.233Z,7.30
2023-05-02T05:14:37.546Z,5.40
2023-05-02T05:17:09.650Z,7.60
2023-05-02T05:19:42.444Z,6.40
2023-05-02T05:22:15.629Z,6.40
2023-05-02T05:24:55.189Z,6.40
2023-05-02T05:27:31.342Z,6.50
2023-05-02T05:30:04.198Z,10.70
2023-05-02T05:32:37.025Z,5.90
2023-05-02T05:35:10.781Z,7.00
2023-05-02T05:37:43.973Z,6.50
2023-05-02T05:40:18.883Z,6.30
2023-05-02T05:42:56.156Z,6.40
2023-05-02T05:45:32.853Z,6.70
2023-05-02T05:48:05.064Z,6.30
2023-05-02T05:53:53.532Z,5.80
2023-05-02T05:56:28.487Z,5.70
2023-05-02T05:59:06.914Z,8.00
2023-05-02T06:01:39.291Z,6.70
2023-05-02T06:04:12.830Z,6.70
2023-05-02T06:06:47.576Z,5.60
2023-05-02T06:09:19.799Z,7.00
2023-05-02T06:11:53.192Z,5.90
2023-05-02T06:14:25.600Z,6.30
2023-05-02T06:17:00.013Z,6.30
2023-05-02T06:19:33.440Z,6.40
2023-05-02T06:22:05.799Z,6.40
2023-05-02T06:24:38.331Z,6.30
2023-05-02T06:27:10.822Z,6.40
2023-05-02T06:29:42.913Z,5.70
2023-05-02T06:32:18.010Z,6.60
2023-05-02T06:34:50.123Z,6.20
2023-05-02T06:37:23.030Z,5.80
2023-05-02T06:39:55.473Z,5.50
2023-05-02T06:42:28.076Z,5.50
2023-05-02T06:45:00.328Z,5.20
2023-05-02T06:47:32.702Z,4.90
2023-05-02T06:50:05.974Z,4.70
2023-05-02T06:52:38.089Z,4.20
2023-05-02T06:55:11.923Z,4.80
2023-05-02T06:57:44.652Z,4.00
2023-05-02T07:00:19.184Z,4.50
2023-05-02T07:02:52.290Z,3.90
2023-05-02T07:05:25.889Z,4.10
2023-05-02T07:07:58.217Z,4.40
2023-05-02T07:10:32.660Z,4.50
2023-05-02T07:13:04.986Z,4.90
2023-05-02T07:15:37.142Z,4.20
2023-05-02T07:18:09.388Z,4.10
2023-05-02T07:20:42.439Z,4.40
2023-05-02T07:23:14.595Z,5.80
2023-05-02T07:25:46.755Z,5.20
2023-05-02T07:28:18.966Z,6.10
2023-05-02T07:30:51.351Z,6.10
2023-05-02T07:33:23.981Z,5.80
2023-05-02T07:35:57.141Z,5.20
2023-05-02T07:38:30.704Z,6.10
2023-05-02T07:41:03.401Z,5.30
2023-05-02T07:43:36.227Z,4.50
2023-05-02T07:46:12.072Z,6.60
2023-05-02T07:48:44.201Z,6.00
2023-05-02T07:51:16.379Z,5.40
2023-05-02T07:53:48.545Z,6.00
2023-05-02T07:56:21.366Z,6.10
2023-05-02T07:58:53.950Z,6.40
2023-05-02T08:01:26.339Z,5.90
2023-05-02T08:03:58.508Z,6.70
2023-05-02T08:06:31.133Z,5.20
2023-05-02T08:09:06.653Z,4.20
2023-05-02T08:11:39.340Z,7.60
2023-05-02T08:14:11.620Z,5.50
2023-05-02T08:16:45.594Z,29.10
2023-05-02T08:19:19.052Z,5.70
2023-05-02T08:21:51.280Z,4.40
2023-05-02T08:24:23.573Z,4.30
2023-05-02T08:26:55.698Z,4.00
2023-05-02T08:29:27.873Z,5.30
2023-05-02T08:32:00.205Z,5.30
2023-05-02T08:34:33.945Z,5.60
2023-05-02T08:37:12.172Z,4.50
2023-05-02T08:39:44.189Z,4.90
2023-05-02T08:42:16.529Z,4.70
2023-05-02T08:44:49.526Z,4.60
2023-05-02T08:47:23.780Z,4.80
2023-05-02T08:50:00.633Z,4.00
2023-05-02T08:52:33.821Z,4.80
2023-05-02T08:55:07.530Z,4.60
2023-05-02T08:57:39.747Z,7.60
2023-05-02T09:00:13.593Z,8.60
2023-05-02T09:03:01.353Z,7.20
2023-05-02T09:05:40.906Z,8.80
2023-05-02T09:08:13.078Z,8.50
2023-05-02T09:10:48.447Z,6.10
2023-05-02T09:13:37.898Z,6.70
2023-05-02T09:16:11.754Z,4.90
2023-05-02T09:18:45.711Z,18.80
2023-05-02T09:21:21.213Z,10.50
2023-05-02T09:23:57.171Z,8.40
2023-05-02T09:26:32.283Z,7.80
2023-05-02T09:29:06.771Z,11.20
2023-05-02T09:34:17.109Z,7.60
2023-05-02T09:36:52.128Z,8.60
2023-05-02T09:39:26.290Z,5.40
2023-05-02T09:41:59.882Z,5.50
2023-05-02T09:44:40.131Z,6.00
2023-05-02T09:47:26.537Z,6.20
2023-05-02T09:49:58.796Z,8.00
2023-05-02T09:52:31.013Z,6.90
2023-05-02T09:55:03.319Z,5.60
2023-05-02T09:57:43.320Z,6.90
2023-05-02T10:00:19.626Z,10.20
2023-05-02T10:02:52.686Z,7.70
2023-05-02T10:05:25.377Z,6.00
2023-05-02T10:07:58.265Z,7.60
2023-05-02T10:10:34.200Z,5.50
2023-05-02T10:13:07.449Z,5.50
2023-05-02T10:15:45.044Z,5.50
2023-05-02T10:18:22.365Z,9.00
2023-05-02T10:21:01.148Z,6.00
2023-05-02T10:23:34.292Z,6.20
2023-05-02T10:26:07.131Z,5.60
2023-05-02T10:28:39.953Z,8.40
2023-05-02T10:31:14.251Z,7.00
2023-05-02T10:33:48.279Z,6.10
2023-05-02T10:36:25.240Z,6.20
2023-05-02T10:38:57.802Z,8.00
2023-05-02T10:41:33.688Z,5.60
2023-05-02T10:44:07.881Z,7.10
2023-05-02T10:46:41.862Z,6.20
2023-05-02T10:49:15.028Z,9.30
2023-05-02T10:51:47.132Z,6.80
2023-05-02T10:54:26.641Z,8.70
2023-05-02T10:57:09.419Z,6.10
2023-05-02T10:59:44.764Z,9.00
2023-05-02T11:02:43.798Z,7.40
2023-05-02T11:05:17.729Z,9.70
2023-05-02T11:07:52.276Z,11.10
2023-05-02T11:10:33.016Z,9.00
2023-05-02T11:13:06.630Z,6.70
2023-05-02T11:16:00.721Z,5.10
2023-05-02T11:19:02.192Z,4.90
2023-05-02T11:21:35.415Z,4.30
2023-05-02T11:24:44.641Z,3.80
2023-05-02T11:27:39.534Z,5.20
2023-05-02T11:30:13.821Z,6.30
2023-05-02T11:33:13.051Z,5.60
2023-05-02T11:35:47.308Z,5.00
2023-05-02T11:38:21.736Z,4.80
2023-05-02T11:41:04.261Z,6.90
2023-05-02T11:43:36.665Z,4.70
2023-05-02T11:46:09.516Z,7.70
2023-05-02T11:48:42.840Z,6.80
2023-05-02T11:51:15.015Z,8.10
2023-05-02T11:53:47.382Z,7.50
2023-05-02T11:56:26.718Z,7.00
2023-05-02T11:59:05.321Z,4.90
2023-05-02T12:01:37.483Z,5.00
2023-05-02T12:04:11.854Z,4.90
2023-05-02T12:06:57.767Z,4.30
2023-05-02T12:09:30.004Z,4.00
2023-05-02T12:12:02.824Z,3.30
2023-05-02T12:14:36.390Z,3.30
2023-05-02T12:17:08.544Z,3.20
2023-05-02T12:19:40.921Z,3.10
2023-05-02T12:22:15.455Z,3.60
2023-05-02T12:24:49.295Z,3.10
2023-05-02T12:27:21.393Z,3.50
2023-05-02T12:29:54.975Z,2.20
2023-05-02T12:32:33.069Z,3.20
2023-05-02T12:35:07.710Z,3.10
2023-05-02T12:37:39.930Z,4.20
2023-05-02T12:40:18.112Z,3.20
2023-05-02T12:43:04.306Z,3.00
2023-05-02T12:45:36.439Z,3.60
2023-05-02T12:48:25.706Z,2.80
2023-05-02T12:50:58.047Z,2.70
2023-05-02T12:53:43.854Z,3.10
2023-05-02T12:56:18.476Z,3.50
2023-05-02T12:58:53.274Z,3.80
2023-05-02T13:01:25.512Z,3.60
2023-05-02T13:03:57.633Z,4.80
2023-05-02T13:06:29.984Z,3.40
2023-05-02T13:09:02.676Z,2.70
2023-05-02T13:11:34.821Z,3.90
2023-05-02T13:14:07.024Z,4.00
2023-05-02T13:16:39.396Z,3.80
2023-05-02T13:19:12.660Z,3.30
2023-05-02T13:21:44.770Z,13.40
2023-05-02T13:24:17.601Z,7.30
2023-05-02T13:26:49.648Z,7.00
2023-05-02T13:29:21.806Z,6.50
2023-05-02T13:31:56.466Z,3.90
2023-05-02T13:34:28.803Z,7.40
2023-05-02T13:37:00.894Z,6.00
2023-05-02T13:39:33.007Z,7.10
2023-05-02T13:42:06.217Z,5.50
2023-05-02T13:44:38.508Z,7.70
2023-05-02T13:47:10.592Z,8.40
2023-05-02T13:49:42.720Z,13.40
2023-05-02T13:52:15.003Z,13.10
2023-05-02T13:54:49.555Z,12.50
2023-05-02T13:57:21.993Z,27.40
2023-05-02T13:59:54.193Z,14.10
2023-05-02T14:02:26.341Z,17.50
2023-05-02T14:04:58.593Z,12.60
2023-05-02T14:07:30.671Z,8.00
2023-05-02T14:10:05.567Z,8.10
2023-05-02T14:12:37.782Z,4.60
2023-05-02T14:15:11.908Z,4.70
2023-05-02T14:17:43.949Z,7.10
2023-05-02T14:20:16.522Z,6.00
2023-05-02T14:22:48.810Z,6.70
2023-05-02T14:25:20.930Z,9.20
2023-05-02T14:27:52.993Z,24.10
2023-05-02T14:30:25.241Z,14.40
2023-05-02T14:32:57.443Z,19.80
2023-05-02T14:35:29.746Z,15.50
2023-05-02T14:38:02.075Z,10.40
2023-05-02T14:40:34.187Z,10.60
2023-05-02T14:43:07.305Z,6.40
2023-05-02T14:45:41.846Z,6.60
2023-05-02T14:48:14.298Z,4.30
2023-05-02T14:50:49.270Z,4.70
2023-05-02T14:53:21.572Z,5.70
2023-05-02T14:55:54.247Z,4.90
2023-05-02T14:58:26.620Z,4.10
2023-05-02T15:00:59.308Z,27.30
2023-05-02T15:03:32.132Z,30.00
2023-05-02T15:06:06.955Z,10.70
2023-05-02T15:08:39.482Z,8.80
2023-05-02T15:11:11.997Z,5.90
2023-05-02T15:13:44.022Z,6.30
2023-05-02T15:16:16.150Z,7.30
2023-05-02T15:18:48.246Z,6.40
2023-05-02T15:21:20.221Z,5.80
2023-05-02T15:23:52.715Z,4.60
2023-05-02T15:26:26.105Z,6.00
2023-05-02T15:29:01.524Z,6.20
2023-05-02T15:31:34.086Z,4.60
2023-05-02T15:34:07.228Z,4.40
2023-05-02T15:36:40.740Z,10.30
2023-05-02T15:39:13.177Z,9.30
2023-05-02T15:41:47.739Z,12.30
2023-05-02T15:44:19.779Z,11.90
2023-05-02T15:46:51.829Z,12.00
2023-05-02T15:49:24.981Z,8.50
2023-05-02T15:51:57.387Z,7.60
2023-05-02T15:54:31.872Z,5.40
2023-05-02T15:57:03.895Z,6.50
2023-05-02T15:59:36.379Z,6.70
2023-05-02T16:02:08.535Z,6.70
2023-05-02T16:04:40.952Z,7.50
2023-05-02T16:07:13.983Z,8.80
2023-05-02T16:09:46.484Z,8.60
2023-05-02T16:12:18.708Z,9.40
2023-05-02T16:14:53.290Z,6.80
2023-05-02T16:17:25.806Z,10.80
2023-05-02T16:19:58.299Z,8.60
2023-05-02T16:22:30.365Z,7.50
2023-05-02T16:25:02.683Z,8.10
2023-05-02T16:27:35.820Z,7.30
2023-05-02T16:30:09.893Z,8.30
2023-05-02T16:32:42.084Z,9.90
2023-05-02T16:35:14.586Z,10.20
2023-05-02T16:37:46.868Z,10.70
2023-05-02T16:40:19.471Z,11.30
2023-05-02T16:42:51.539Z,10.60
2023-05-02T16:45:25.533Z,9.70
2023-05-02T16:47:57.909Z,9.80
2023-05-02T16:50:29.953Z,8.00
2023-05-02T16:53:02.132Z,8.50
2023-05-02T16:55:34.611Z,6.60
2023-05-02T16:58:06.678Z,6.00
2023-05-02T17:00:38.660Z,5.80
2023-05-02T17:03:11.069Z,7.50
2023-05-02T17:05:43.178Z,7.10
2023-05-02T17:08:17.059Z,6.20
2023-05-02T17:10:52.680Z,6.80
2023-05-02T17:13:24.766Z,11.90
2023-05-02T17:15:57.566Z,7.50
2023-05-02T17:18:29.699Z,7.00
2023-05-02T17:21:03.852Z,38.90
2023-05-02T17:23:36.997Z,39.10
2023-05-02T17:26:14.399Z,12.80
2023-05-02T17:28:46.684Z,9.40
2023-05-02T17:31:19.405Z,8.00
2023-05-02T17:33:52.328Z,14.50
2023-05-02T17:36:24.304Z,13.70
2023-05-02T17:38:56.376Z,20.00
2023-05-02T17:41:28.967Z,20.30
2023-05-02T17:44:01.016Z,24.70
2023-05-02T17:46:35.147Z,15.60
2023-05-02T17:49:07.851Z,21.30
2023-05-02T17:51:42.057Z,20.80
2023-05-02T17:54:14.181Z,18.70
2023-05-02T17:56:46.369Z,18.00
2023-05-02T17:59:21.997Z,16.90
2023-05-02T18:01:58.548Z,14.80
2023-05-02T18:04:31.321Z,11.80
2023-05-02T18:07:05.685Z,11.80
2023-05-02T18:09:38.217Z,10.70
2023-05-02T18:12:10.404Z,12.20
2023-05-02T18:14:43.333Z,11.30
2023-05-02T18:17:15.423Z,11.70
2023-05-02T18:19:48.954Z,10.90
2023-05-02T18:22:21.971Z,14.30
2023-05-02T18:24:54.555Z,11.80
2023-05-02T18:27:28.617Z,14.00
2023-05-02T18:30:01.822Z,12.00
2023-05-02T18:32:35.941Z,15.50
2023-05-02T18:35:11.566Z,14.60
2023-05-02T18:37:43.610Z,13.80
2023-05-02T18:40:16.176Z,13.00
2023-05-02T18:42:48.109Z,12.80
2023-05-02T18:45:21.205Z,12.60
2023-05-02T18:47:53.487Z,13.40
2023-05-02T18:50:26.698Z,12.80
2023-05-02T18:52:58.930Z,13.10
2023-05-02T18:55:32.886Z,12.90
2023-05-02T18:58:04.951Z,12.10
2023-05-02T19:00:37.786Z,12.60
2023-05-02T19:03:09.851Z,12.50
2023-05-02T19:05:43.466Z,11.80
2023-05-02T19:08:16.190Z,11.80
2023-05-02T19:10:48.259Z,11.40
2023-05-02T19:13:20.869Z,11.60
2023-05-02T19:15:52.977Z,10.60
2023-05-02T19:18:25.098Z,11.20
2023-05-02T19:20:57.363Z,11.70
2023-05-02T19:23:29.467Z,10.80
2023-05-02T19:26:02.110Z,12.90
2023-05-02T19:28:34.300Z,12.30
2023-05-02T19:31:11.522Z,13.10
2023-05-02T19:33:50.226Z,11.50
2023-05-02T19:36:23.198Z,11.00
2023-05-02T19:38:58.177Z,9.30
2023-05-02T19:41:30.979Z,9.10
2023-05-02T19:44:03.082Z,12.50
2023-05-02T19:46:35.297Z,17.90
2023-05-02T19:49:07.402Z,12.80
2023-05-02T19:51:42.253Z,13.70
2023-05-02T19:54:14.539Z,32.90
2023-05-02T19:56:48.850Z,10.80
2023-05-02T19:59:20.964Z,9.70
2023-05-02T20:01:53.075Z,10.80
2023-05-02T20:04:25.967Z,12.90
2023-05-02T20:06:58.011Z,13.40
2023-05-02T20:09:30.066Z,12.70
2023-05-02T20:12:02.184Z,13.10
2023-05-02T20:14:34.438Z,14.50
2023-05-02T20:17:06.745Z,15.40
2023-05-02T20:19:42.547Z,13.90
2023-05-02T20:25:25.315Z,12.70
2023-05-02T20:27:58.889Z,11.50
2023-05-02T20:30:31.346Z,9.90
2023-05-02T20:33:13.932Z,12.20
2023-05-02T20:35:54.113Z,14.10
2023-05-02T20:38:26.156Z,12.80
2023-05-02T20:41:01.278Z,15.00
2023-05-02T20:43:35.503Z,17.20
2023-05-02T20:46:12.943Z,14.70
2023-05-02T20:48:47.056Z,13.30
2023-05-02T20:51:35.686Z,13.30
2023-05-02T20:54:08.181Z,11.90
2023-05-02T20:56:40.445Z,11.30
2023-05-02T20:59:12.674Z,11.70
2023-05-02T21:01:44.832Z,11.40
2023-05-02T21:04:17.094Z,10.90
2023-05-02T21:06:53.282Z,12.60
2023-05-02T21:09:25.702Z,12.40
2023-05-02T21:11:57.866Z,12.70
2023-05-02T21:14:30.033Z,12.60
2023-05-02T21:17:02.958Z,10.90
2023-05-02T21:19:36.060Z,13.20
2023-05-02T21:22:08.321Z,12.40
2023-05-02T21:24:40.452Z,13.50
2023-05-02T21:27:12.707Z,13.70
2023-05-02T21:29:44.838Z,14.90
2023-05-02T21:32:17.314Z,13.10
2023-05-02T21:34:50.597Z,13.10
2023-05-02T21:37:24.971Z,13.60
2023-05-02T21:39:57.289Z,13.20
2023-05-02T21:42:29.389Z,13.10
2023-05-02T21:45:02.061Z,13.10
2023-05-02T21:47:35.108Z,12.60
2023-05-02T21:50:08.564Z,13.70
2023-05-02T21:52:40.709Z,10.90
2023-05-02T21:55:13.291Z,11.30
2023-05-02T21:57:45.432Z,12.60
2023-05-02T22:00:18.629Z,12.30
2023-05-02T22:02:51.418Z,13.00
2023-05-02T22:05:23.921Z,11.50
2023-05-02T22:07:57.198Z,12.10
2023-05-02T22:10:29.727Z,11.90
2023-05-02T22:13:01.829Z,12.10
2023-05-02T22:15:33.993Z,12.10
2023-05-02T22:18:07.083Z,13.50
2023-05-02T22:20:42.372Z,12.10
2023-05-02T22:23:15.215Z,12.70
2023-05-02T22:25:47.459Z,12.30
2023-05-02T22:28:19.549Z,12.80
2023-05-02T22:30:51.636Z,12.90
2023-05-02T22:33:23.924Z,14.60
2023-05-02T22:35:57.061Z,14.20
2023-05-02T22:38:29.147Z,13.00
2023-05-02T22:41:03.357Z,13.20
2023-05-02T22:43:35.520Z,11.40
2023-05-02T22:46:07.730Z,11.30
2023-05-02T22:48:39.859Z,10.60
2023-05-02T22:51:12.079Z,10.40
2023-05-02T22:53:44.285Z,10.40
2023-05-02T22:56:16.425Z,11.30
2023-05-02T22:58:50.103Z,11.50
2023-05-02T23:01:22.432Z,13.00
2023-05-02T23:03:54.902Z,11.40
2023-05-02T23:06:28.869Z,10.90
2023-05-02T23:09:01.170Z,11.40
2023-05-02T23:11:33.295Z,11.00
2023-05-02T23:14:05.415Z,10.90
2023-05-02T23:16:37.734Z,12.00
2023-05-02T23:19:09.870Z,12.00
2023-05-02T23:21:43.254Z,11.80
2023-05-02T23:24:15.481Z,11.20
2023-05-02T23:26:47.866Z,12.00
2023-05-02T23:29:20.086Z,12.80
2023-05-02T23:31:54.564Z,12.30
2023-05-02T23:34:29.810Z,13.10
2023-05-02T23:37:01.921Z,12.40
2023-05-02T23:39:34.280Z,12.10
2023-05-02T23:42:06.822Z,12.80
2023-05-02T23:44:39.094Z,12.80
2023-05-02T23:47:11.427Z,13.20
2023-05-02T23:49:43.849Z,13.00
2023-05-02T23:52:15.959Z,14.50
2023-05-02T23:54:50.711Z,14.20
2023-05-02T23:57:22.854Z,13.60
2023-05-02T23:59:55.005Z,15.30
